sensor_id;sensor_type;location;lat;lon;timestamp;temperature;humidity
53422;DHT22;39319;52.944;5.928;2023-03-01T00:01:02;4.00;95.00
53422;DHT22;39319;52.944;5.928;2023-03-01T00:03:27;3.90;95.10
53422;DHT22;39319;52.944;5.928;2023-03-01T00:05:53;3.90;95.20
53422;DHT22;39319;52.944;5.928;2023-03-01T00:08:19;4.00;95.20
53422;DHT22;39319;52.944;5.928;2023-03-01T00:10:44;3.90;95.10
53422;DHT22;39319;52.944;5.928;2023-03-01T00:13:10;3.80;95.10
53422;DHT22;39319;52.944;5.928;2023-03-01T00:15:40;3.80;94.90
53422;DHT22;39319;52.944;5.928;2023-03-01T00:18:07;4.00;95.00
53422;DHT22;39319;52.944;5.928;2023-03-01T00:20:34;3.80;95.20
53422;DHT22;39319;52.944;5.928;2023-03-01T00:23:02;3.60;94.90
53422;DHT22;39319;52.944;5.928;2023-03-01T00:25:28;4.50;95.10
53422;DHT22;39319;52.944;5.928;2023-03-01T00:27:53;4.10;95.00
53422;DHT22;39319;52.944;5.928;2023-03-01T00:30:19;3.60;94.80
53422;DHT22;39319;52.944;5.928;2023-03-01T00:32:45;3.60;94.90
53422;DHT22;39319;52.944;5.928;2023-03-01T00:35:10;3.80;94.90
53422;DHT22;39319;52.944;5.928;2023-03-01T00:37:36;3.50;95.00
53422;DHT22;39319;52.944;5.928;2023-03-01T00:40:02;3.60;94.90
53422;DHT22;39319;52.944;5.928;2023-03-01T00:42:31;3.60;94.90
53422;DHT22;39319;52.944;5.928;2023-03-01T00:44:57;3.70;95.00
53422;DHT22;39319;52.944;5.928;2023-03-01T00:47:22;3.60;94.80
53422;DHT22;39319;52.944;5.928;2023-03-01T00:49:48;3.80;94.80
53422;DHT22;39319;52.944;5.928;2023-03-01T00:52:14;3.40;94.80
53422;DHT22;39319;52.944;5.928;2023-03-01T00:54:39;3.60;94.70
53422;DHT22;39319;52.944;5.928;2023-03-01T00:57:05;4.10;94.90
53422;DHT22;39319;52.944;5.928;2023-03-01T00:59:31;3.80;95.20
53422;DHT22;39319;52.944;5.928;2023-03-01T01:01:57;3.30;94.90
53422;DHT22;39319;52.944;5.928;2023-03-01T01:04:24;4.20;95.20
53422;DHT22;39319;52.944;5.928;2023-03-01T01:06:50;4.30;95.10
53422;DHT22;39319;52.944;5.928;2023-03-01T01:09:17;3.50;95.00
53422;DHT22;39319;52.944;5.928;2023-03-01T01:11:47;3.30;94.90
53422;DHT22;39319;52.944;5.928;2023-03-01T01:14:13;3.00;94.60
53422;DHT22;39319;52.944;5.928;2023-03-01T01:16:39;2.90;94.80
53422;DHT22;39319;52.944;5.928;2023-03-01T01:19:05;3.30;95.00
53422;DHT22;39319;52.944;5.928;2023-03-01T01:21:32;3.40;95.00
53422;DHT22;39319;52.944;5.928;2023-03-01T01:23:57;3.90;95.20
53422;DHT22;39319;52.944;5.928;2023-03-01T01:26:25;3.30;95.10
53422;DHT22;39319;52.944;5.928;2023-03-01T01:28:52;3.80;95.10
53422;DHT22;39319;52.944;5.928;2023-03-01T01:31:18;3.00;94.90
53422;DHT22;39319;52.944;5.928;2023-03-01T01:33:44;3.50;95.10
53422;DHT22;39319;52.944;5.928;2023-03-01T01:36:11;3.30;95.10
53422;DHT22;39319;52.944;5.928;2023-03-01T01:38:37;3.30;95.10
53422;DHT22;39319;52.944;5.928;2023-03-01T01:41:04;3.10;95.10
53422;DHT22;39319;52.944;5.928;2023-03-01T01:43:34;3.20;95.00
53422;DHT22;39319;52.944;5.928;2023-03-01T01:48:55;3.50;95.20
53422;DHT22;39319;52.944;5.928;2023-03-01T01:51:29;3.50;95.30
53422;DHT22;39319;52.944;5.928;2023-03-01T01:54:09;2.90;94.90
53422;DHT22;39319;52.944;5.928;2023-03-01T01:56:36;2.80;95.00
53422;DHT22;39319;52.944;5.928;2023-03-01T01:59:03;3.10;95.10
53422;DHT22;39319;52.944;5.928;2023-03-01T02:01:28;3.10;95.20
53422;DHT22;39319;52.944;5.928;2023-03-01T02:03:54;3.00;95.20
53422;DHT22;39319;52.944;5.928;2023-03-01T02:06:31;3.40;95.20
53422;DHT22;39319;52.944;5.928;2023-03-01T02:09:08;3.00;95.30
53422;DHT22;39319;52.944;5.928;2023-03-01T02:11:36;3.10;95.10
53422;DHT22;39319;52.944;5.928;2023-03-01T02:14:03;2.80;95.20
53422;DHT22;39319;52.944;5.928;2023-03-01T02:16:30;3.00;95.10
53422;DHT22;39319;52.944;5.928;2023-03-01T02:18:57;2.70;95.10
53422;DHT22;39319;52.944;5.928;2023-03-01T02:21:30;2.90;95.20
53422;DHT22;39319;52.944;5.928;2023-03-01T02:24:10;2.60;94.80
53422;DHT22;39319;52.944;5.928;2023-03-01T02:26:55;2.90;95.00
53422;DHT22;39319;52.944;5.928;2023-03-01T02:29:23;3.30;95.40
53422;DHT22;39319;52.944;5.928;2023-03-01T02:31:51;2.60;95.10
53422;DHT22;39319;52.944;5.928;2023-03-01T02:34:23;3.10;95.30
53422;DHT22;39319;52.944;5.928;2023-03-01T02:39:42;2.60;95.10
53422;DHT22;39319;52.944;5.928;2023-03-01T02:42:13;4.10;95.40
53422;DHT22;39319;52.944;5.928;2023-03-01T02:44:40;2.50;95.20
53422;DHT22;39319;52.944;5.928;2023-03-01T02:47:06;2.40;95.20
53422;DHT22;39319;52.944;5.928;2023-03-01T02:49:34;2.40;95.20
53422;DHT22;39319;52.944;5.928;2023-03-01T02:55:03;3.30;95.90
53422;DHT22;39319;52.944;5.928;2023-03-01T02:57:31;2.40;95.80
53422;DHT22;39319;52.944;5.928;2023-03-01T02:59:59;3.50;96.60
53422;DHT22;39319;52.944;5.928;2023-03-01T03:02:29;3.20;96.80
53422;DHT22;39319;52.944;5.928;2023-03-01T03:05:15;2.50;96.50
53422;DHT22;39319;52.944;5.928;2023-03-01T03:07:43;2.80;96.60
53422;DHT22;39319;52.944;5.928;2023-03-01T03:10:12;2.90;96.70
53422;DHT22;39319;52.944;5.928;2023-03-01T03:12:38;2.50;96.90
53422;DHT22;39319;52.944;5.928;2023-03-01T03:15:06;3.10;97.10
53422;DHT22;39319;52.944;5.928;2023-03-01T03:17:38;2.40;96.70
53422;DHT22;39319;52.944;5.928;2023-03-01T03:20:06;2.90;96.80
53422;DHT22;39319;52.944;5.928;2023-03-01T03:22:36;2.40;96.60
53422;DHT22;39319;52.944;5.928;2023-03-01T03:25:03;2.70;96.70
53422;DHT22;39319;52.944;5.928;2023-03-01T03:27:28;2.60;97.00
53422;DHT22;39319;52.944;5.928;2023-03-01T03:29:54;3.00;97.10
53422;DHT22;39319;52.944;5.928;2023-03-01T03:32:20;3.90;97.50
53422;DHT22;39319;52.944;5.928;2023-03-01T03:34:45;3.00;97.50
53422;DHT22;39319;52.944;5.928;2023-03-01T03:37:11;2.60;97.60
53422;DHT22;39319;52.944;5.928;2023-03-01T03:39:57;3.70;98.00
53422;DHT22;39319;52.944;5.928;2023-03-01T03:42:24;2.30;97.80
53422;DHT22;39319;52.944;5.928;2023-03-01T03:44:49;2.70;97.90
53422;DHT22;39319;52.944;5.928;2023-03-01T03:47:15;2.50;97.80
53422;DHT22;39319;52.944;5.928;2023-03-01T03:49:41;2.80;97.80
53422;DHT22;39319;52.944;5.928;2023-03-01T03:52:06;2.70;98.00
53422;DHT22;39319;52.944;5.928;2023-03-01T03:54:40;2.50;98.00
53422;DHT22;39319;52.944;5.928;2023-03-01T03:57:06;2.30;98.10
53422;DHT22;39319;52.944;5.928;2023-03-01T03:59:32;2.30;98.10
53422;DHT22;39319;52.944;5.928;2023-03-01T04:01:57;2.30;98.00
53422;DHT22;39319;52.944;5.928;2023-03-01T04:04:25;2.50;98.00
53422;DHT22;39319;52.944;5.928;2023-03-01T04:06:51;2.60;98.20
53422;DHT22;39319;52.944;5.928;2023-03-01T04:09:17;2.30;98.10
53422;DHT22;39319;52.944;5.928;2023-03-01T04:11:42;2.20;98.20
53422;DHT22;39319;52.944;5.928;2023-03-01T04:14:08;2.60;98.20
53422;DHT22;39319;52.944;5.928;2023-03-01T04:16:35;3.20;98.30
53422;DHT22;39319;52.944;5.928;2023-03-01T04:19:00;2.20;98.10
53422;DHT22;39319;52.944;5.928;2023-03-01T04:21:26;3.00;98.30
53422;DHT22;39319;52.944;5.928;2023-03-01T04:23:52;3.90;98.30
53422;DHT22;39319;52.944;5.928;2023-03-01T04:26:19;2.90;98.00
53422;DHT22;39319;52.944;5.928;2023-03-01T04:28:45;2.40;98.00
53422;DHT22;39319;52.944;5.928;2023-03-01T04:31:15;2.20;97.70
53422;DHT22;39319;52.944;5.928;2023-03-01T04:33:47;2.10;97.70
53422;DHT22;39319;52.944;5.928;2023-03-01T04:36:15;2.60;97.80
53422;DHT22;39319;52.944;5.928;2023-03-01T04:38:42;2.20;97.70
53422;DHT22;39319;52.944;5.928;2023-03-01T04:41:09;2.70;97.60
53422;DHT22;39319;52.944;5.928;2023-03-01T04:43:36;2.20;97.70
53422;DHT22;39319;52.944;5.928;2023-03-01T04:46:11;2.00;97.60
53422;DHT22;39319;52.944;5.928;2023-03-01T04:48:39;3.20;97.90
53422;DHT22;39319;52.944;5.928;2023-03-01T04:51:05;1.90;97.40
53422;DHT22;39319;52.944;5.928;2023-03-01T04:53:32;2.60;97.40
53422;DHT22;39319;52.944;5.928;2023-03-01T04:55:58;2.00;97.40
53422;DHT22;39319;52.944;5.928;2023-03-01T04:58:26;2.00;97.50
53422;DHT22;39319;52.944;5.928;2023-03-01T05:00:52;1.90;97.20
53422;DHT22;39319;52.944;5.928;2023-03-01T05:03:19;2.90;97.60
53422;DHT22;39319;52.944;5.928;2023-03-01T05:05:47;1.50;97.30
53422;DHT22;39319;52.944;5.928;2023-03-01T05:08:13;1.70;97.30
53422;DHT22;39319;52.944;5.928;2023-03-01T05:10:44;1.50;97.20
53422;DHT22;39319;52.944;5.928;2023-03-01T05:13:11;2.10;97.40
53422;DHT22;39319;52.944;5.928;2023-03-01T05:15:39;2.60;97.30
53422;DHT22;39319;52.944;5.928;2023-03-01T05:18:06;1.80;97.00
53422;DHT22;39319;52.944;5.928;2023-03-01T05:20:37;1.40;97.00
53422;DHT22;39319;52.944;5.928;2023-03-01T05:23:04;1.60;97.10
53422;DHT22;39319;52.944;5.928;2023-03-01T05:25:32;1.80;97.20
53422;DHT22;39319;52.944;5.928;2023-03-01T05:28:02;2.20;97.00
53422;DHT22;39319;52.944;5.928;2023-03-01T05:30:33;1.60;96.60
53422;DHT22;39319;52.944;5.928;2023-03-01T05:32:59;2.40;97.00
53422;DHT22;39319;52.944;5.928;2023-03-01T05:35:25;1.70;96.70
53422;DHT22;39319;52.944;5.928;2023-03-01T05:37:51;1.60;96.50
53422;DHT22;39319;52.944;5.928;2023-03-01T05:40:19;1.30;96.40
53422;DHT22;39319;52.944;5.928;2023-03-01T05:42:48;1.50;96.40
53422;DHT22;39319;52.944;5.928;2023-03-01T05:45:16;1.30;96.30
53422;DHT22;39319;52.944;5.928;2023-03-01T05:47:43;1.10;97.20
53422;DHT22;39319;52.944;5.928;2023-03-01T05:50:15;0.80;98.50
53422;DHT22;39319;52.944;5.928;2023-03-01T05:52:50;0.50;99.10
53422;DHT22;39319;52.944;5.928;2023-03-01T05:55:17;0.20;98.50
53422;DHT22;39319;52.944;5.928;2023-03-01T05:57:43;0.30;98.60
53422;DHT22;39319;52.944;5.928;2023-03-01T06:00:10;0.10;99.30
53422;DHT22;39319;52.944;5.928;2023-03-01T06:02:37;1.20;98.80
53422;DHT22;39319;52.944;5.928;2023-03-01T06:05:05;-0.10;98.80
53422;DHT22;39319;52.944;5.928;2023-03-01T06:07:33;0.00;98.60
53422;DHT22;39319;52.944;5.928;2023-03-01T06:09:59;-0.20;98.50
53422;DHT22;39319;52.944;5.928;2023-03-01T06:12:27;0.20;99.20
53422;DHT22;39319;52.944;5.928;2023-03-01T06:14:55;0.90;98.80
53422;DHT22;39319;52.944;5.928;2023-03-01T06:17:21;1.40;99.00
53422;DHT22;39319;52.944;5.928;2023-03-01T06:19:47;-0.10;99.00
53422;DHT22;39319;52.944;5.928;2023-03-01T06:22:12;0.20;98.50
53422;DHT22;39319;52.944;5.928;2023-03-01T06:24:38;-0.20;98.70
53422;DHT22;39319;52.944;5.928;2023-03-01T06:27:04;0.10;98.80
53422;DHT22;39319;52.944;5.928;2023-03-01T06:29:30;0.10;98.50
53422;DHT22;39319;52.944;5.928;2023-03-01T06:31:56;-0.20;98.90
53422;DHT22;39319;52.944;5.928;2023-03-01T06:34:21;0.10;98.80
53422;DHT22;39319;52.944;5.928;2023-03-01T06:36:47;0.60;98.30
53422;DHT22;39319;52.944;5.928;2023-03-01T06:39:13;0.70;99.00
53422;DHT22;39319;52.944;5.928;2023-03-01T06:41:43;-0.10;98.60
53422;DHT22;39319;52.944;5.928;2023-03-01T06:44:09;-0.10;98.20
53422;DHT22;39319;52.944;5.928;2023-03-01T06:46:37;-0.10;98.70
53422;DHT22;39319;52.944;5.928;2023-03-01T06:49:03;1.00;98.80
53422;DHT22;39319;52.944;5.928;2023-03-01T06:51:33;0.60;98.50
53422;DHT22;39319;52.944;5.928;2023-03-01T06:53:58;1.00;99.20
53422;DHT22;39319;52.944;5.928;2023-03-01T06:56:24;0.30;98.50
53422;DHT22;39319;52.944;5.928;2023-03-01T06:58:50;0.20;98.50
53422;DHT22;39319;52.944;5.928;2023-03-01T07:01:15;0.60;99.20
53422;DHT22;39319;52.944;5.928;2023-03-01T07:03:41;-0.30;98.50
53422;DHT22;39319;52.944;5.928;2023-03-01T07:06:10;1.30;98.70
53422;DHT22;39319;52.944;5.928;2023-03-01T07:08:35;0.30;99.00
53422;DHT22;39319;52.944;5.928;2023-03-01T07:11:01;-0.10;99.20
53422;DHT22;39319;52.944;5.928;2023-03-01T07:13:31;1.00;98.60
53422;DHT22;39319;52.944;5.928;2023-03-01T07:15:57;0.10;98.60
53422;DHT22;39319;52.944;5.928;2023-03-01T07:18:23;0.10;99.10
53422;DHT22;39319;52.944;5.928;2023-03-01T07:20:49;0.20;98.60
53422;DHT22;39319;52.944;5.928;2023-03-01T07:23:15;0.70;98.90
53422;DHT22;39319;52.944;5.928;2023-03-01T07:25:41;-0.30;99.20
53422;DHT22;39319;52.944;5.928;2023-03-01T07:28:07;0.10;98.90
53422;DHT22;39319;52.944;5.928;2023-03-01T07:30:32;0.80;99.00
53422;DHT22;39319;52.944;5.928;2023-03-01T07:32:58;-0.10;99.20
53422;DHT22;39319;52.944;5.928;2023-03-01T07:35:27;0.30;98.90
53422;DHT22;39319;52.944;5.928;2023-03-01T07:37:53;1.70;99.40
53422;DHT22;39319;52.944;5.928;2023-03-01T07:40:19;0.20;99.30
53422;DHT22;39319;52.944;5.928;2023-03-01T07:42:45;0.20;98.80
53422;DHT22;39319;52.944;5.928;2023-03-01T07:45:11;0.40;99.30
53422;DHT22;39319;52.944;5.928;2023-03-01T07:47:39;0.20;99.30
53422;DHT22;39319;52.944;5.928;2023-03-01T07:50:05;0.30;99.00
53422;DHT22;39319;52.944;5.928;2023-03-01T07:52:31;0.30;99.60
53422;DHT22;39319;52.944;5.928;2023-03-01T07:54:57;0.30;99.60
53422;DHT22;39319;52.944;5.928;2023-03-01T07:57:23;0.70;99.40
53422;DHT22;39319;52.944;5.928;2023-03-01T07:59:49;0.70;99.30
53422;DHT22;39319;52.944;5.928;2023-03-01T08:02:15;1.30;99.40
53422;DHT22;39319;52.944;5.928;2023-03-01T08:04:41;0.80;99.80
53422;DHT22;39319;52.944;5.928;2023-03-01T08:07:07;1.40;99.90
53422;DHT22;39319;52.944;5.928;2023-03-01T08:09:36;1.40;99.70
53422;DHT22;39319;52.944;5.928;2023-03-01T08:12:03;0.90;99.60
53422;DHT22;39319;52.944;5.928;2023-03-01T08:14:30;0.90;99.60
53422;DHT22;39319;52.944;5.928;2023-03-01T08:16:56;1.00;99.70
53422;DHT22;39319;52.944;5.928;2023-03-01T08:19:23;1.40;99.80
53422;DHT22;39319;52.944;5.928;2023-03-01T08:21:49;1.20;99.70
53422;DHT22;39319;52.944;5.928;2023-03-01T08:24:15;2.10;99.90
53422;DHT22;39319;52.944;5.928;2023-03-01T08:26:40;1.40;99.80
53422;DHT22;39319;52.944;5.928;2023-03-01T08:29:06;1.80;99.90
53422;DHT22;39319;52.944;5.928;2023-03-01T08:31:38;1.90;99.90
53422;DHT22;39319;52.944;5.928;2023-03-01T08:34:07;1.80;99.90
53422;DHT22;39319;52.944;5.928;2023-03-01T08:36:36;1.60;99.90
53422;DHT22;39319;52.944;5.928;2023-03-01T08:39:03;3.30;99.90
53422;DHT22;39319;52.944;5.928;2023-03-01T08:41:29;2.20;99.90
53422;DHT22;39319;52.944;5.928;2023-03-01T08:43:55;3.00;99.90
53422;DHT22;39319;52.944;5.928;2023-03-01T08:46:35;2.70;99.90
53422;DHT22;39319;52.944;5.928;2023-03-01T08:49:04;2.30;99.90
53422;DHT22;39319;52.944;5.928;2023-03-01T08:51:31;2.60;99.90
53422;DHT22;39319;52.944;5.928;2023-03-01T08:54:12;2.70;99.90
53422;DHT22;39319;52.944;5.928;2023-03-01T08:56:38;2.90;99.90
53422;DHT22;39319;52.944;5.928;2023-03-01T08:59:04;2.90;99.90
53422;DHT22;39319;52.944;5.928;2023-03-01T09:01:30;3.00;99.90
53422;DHT22;39319;52.944;5.928;2023-03-01T09:03:56;4.10;99.90
53422;DHT22;39319;52.944;5.928;2023-03-01T09:06:22;3.70;99.90
53422;DHT22;39319;52.944;5.928;2023-03-01T09:08:49;4.00;99.90
53422;DHT22;39319;52.944;5.928;2023-03-01T09:11:17;3.70;99.90
53422;DHT22;39319;52.944;5.928;2023-03-01T09:13:44;3.30;99.90
53422;DHT22;39319;52.944;5.928;2023-03-01T09:16:12;3.80;99.90
53422;DHT22;39319;52.944;5.928;2023-03-01T09:18:38;4.70;99.90
53422;DHT22;39319;52.944;5.928;2023-03-01T09:21:09;3.90;99.80
53422;DHT22;39319;52.944;5.928;2023-03-01T09:23:41;4.60;99.70
53422;DHT22;39319;52.944;5.928;2023-03-01T09:26:08;4.70;99.50
53422;DHT22;39319;52.944;5.928;2023-03-01T09:28:35;4.80;99.30
53422;DHT22;39319;52.944;5.928;2023-03-01T09:31:02;5.10;99.10
53422;DHT22;39319;52.944;5.928;2023-03-01T09:33:29;5.10;98.70
53422;DHT22;39319;52.944;5.928;2023-03-01T09:36:04;5.00;98.50
53422;DHT22;39319;52.944;5.928;2023-03-01T09:38:31;5.00;98.20
53422;DHT22;39319;52.944;5.928;2023-03-01T09:40:57;5.20;98.20
53422;DHT22;39319;52.944;5.928;2023-03-01T09:43:45;5.30;97.90
53422;DHT22;39319;52.944;5.928;2023-03-01T09:46:14;5.20;97.90
53422;DHT22;39319;52.944;5.928;2023-03-01T09:48:59;5.10;97.90
53422;DHT22;39319;52.944;5.928;2023-03-01T09:51:35;5.40;97.80
53422;DHT22;39319;52.944;5.928;2023-03-01T09:54:04;5.60;97.50
53422;DHT22;39319;52.944;5.928;2023-03-01T09:56:39;5.80;97.00
53422;DHT22;39319;52.944;5.928;2023-03-01T09:59:25;5.80;96.70
53422;DHT22;39319;52.944;5.928;2023-03-01T10:09:42;6.40;96.60
53422;DHT22;39319;52.944;5.928;2023-03-01T10:12:17;6.60;95.80
53422;DHT22;39319;52.944;5.928;2023-03-01T10:20:22;7.00;95.10
53422;DHT22;39319;52.944;5.928;2023-03-01T10:22:48;7.40;94.30
53422;DHT22;39319;52.944;5.928;2023-03-01T10:25:55;7.20;94.00
53422;DHT22;39319;52.944;5.928;2023-03-01T10:28:31;7.50;93.40
53422;DHT22;39319;52.944;5.928;2023-03-01T10:31:00;7.70;92.80
53422;DHT22;39319;52.944;5.928;2023-03-01T10:33:37;7.90;93.30
53422;DHT22;39319;52.944;5.928;2023-03-01T10:36:05;8.00;93.20
53422;DHT22;39319;52.944;5.928;2023-03-01T10:38:56;8.40;92.40
53422;DHT22;39319;52.944;5.928;2023-03-01T10:41:25;8.70;92.30
53422;DHT22;39319;52.944;5.928;2023-03-01T10:43:56;9.10;91.80
53422;DHT22;39319;52.944;5.928;2023-03-01T10:46:32;9.20;91.30
53422;DHT22;39319;52.944;5.928;2023-03-01T10:51:47;9.80;90.50
53422;DHT22;39319;52.944;5.928;2023-03-01T10:54:22;10.20;89.90
53422;DHT22;39319;52.944;5.928;2023-03-01T10:56:57;10.60;88.00
53422;DHT22;39319;52.944;5.928;2023-03-01T11:02:15;11.10;84.90
53422;DHT22;39319;52.944;5.928;2023-03-01T11:05:21;11.50;86.00
53422;DHT22;39319;52.944;5.928;2023-03-01T11:07:54;11.80;83.50
53422;DHT22;39319;52.944;5.928;2023-03-01T11:10:30;12.20;83.60
53422;DHT22;39319;52.944;5.928;2023-03-01T11:13:17;12.50;83.80
53422;DHT22;39319;52.944;5.928;2023-03-01T11:16:05;12.80;82.30
53422;DHT22;39319;52.944;5.928;2023-03-01T11:18:32;12.80;80.10
53422;DHT22;39319;52.944;5.928;2023-03-01T11:20:59;13.10;79.70
53422;DHT22;39319;52.944;5.928;2023-03-01T11:23:28;13.20;78.40
53422;DHT22;39319;52.944;5.928;2023-03-01T11:25:56;13.50;79.10
53422;DHT22;39319;52.944;5.928;2023-03-01T11:28:24;13.60;77.60
53422;DHT22;39319;52.944;5.928;2023-03-01T11:31:08;13.80;76.70
53422;DHT22;39319;52.944;5.928;2023-03-01T11:33:44;13.90;76.70
53422;DHT22;39319;52.944;5.928;2023-03-01T11:38:57;14.10;74.40
53422;DHT22;39319;52.944;5.928;2023-03-01T11:41:31;14.20;74.70
53422;DHT22;39319;52.944;5.928;2023-03-01T11:44:14;14.30;73.90
53422;DHT22;39319;52.944;5.928;2023-03-01T11:52:17;14.70;71.50
53422;DHT22;39319;52.944;5.928;2023-03-01T12:17:39;15.70;66.50
53422;DHT22;39319;52.944;5.928;2023-03-01T12:20:20;15.70;68.40
53422;DHT22;39319;52.944;5.928;2023-03-01T12:25:41;15.80;67.30
53422;DHT22;39319;52.944;5.928;2023-03-01T12:41:35;16.10;66.10
53422;DHT22;39319;52.944;5.928;2023-03-01T12:47:20;16.30;65.60
53422;DHT22;39319;52.944;5.928;2023-03-01T12:49:54;16.30;66.00
53422;DHT22;39319;52.944;5.928;2023-03-01T12:52:52;16.40;65.20
53422;DHT22;39319;52.944;5.928;2023-03-01T12:55:34;16.40;65.10
53422;DHT22;39319;52.944;5.928;2023-03-01T13:01:14;16.50;64.90
53422;DHT22;39319;52.944;5.928;2023-03-01T13:12:42;16.50;63.60
53422;DHT22;39319;52.944;5.928;2023-03-01T13:17:59;16.50;64.60
53422;DHT22;39319;52.944;5.928;2023-03-01T13:20:45;16.60;63.60
53422;DHT22;39319;52.944;5.928;2023-03-01T13:33:50;16.70;62.40
53422;DHT22;39319;52.944;5.928;2023-03-01T13:49:56;16.70;62.60
53422;DHT22;39319;52.944;5.928;2023-03-01T13:57:43;16.70;61.90
53422;DHT22;39319;52.944;5.928;2023-03-01T14:00:36;16.50;61.40
53422;DHT22;39319;52.944;5.928;2023-03-01T14:03:09;16.40;62.40
53422;DHT22;39319;52.944;5.928;2023-03-01T14:05:36;16.40;61.70
53422;DHT22;39319;52.944;5.928;2023-03-01T14:08:18;16.40;62.50
53422;DHT22;39319;52.944;5.928;2023-03-01T14:21:01;16.20;63.40
53422;DHT22;39319;52.944;5.928;2023-03-01T14:23:34;16.10;62.80
53422;DHT22;39319;52.944;5.928;2023-03-01T14:26:03;16.10;62.80
53422;DHT22;39319;52.944;5.928;2023-03-01T14:28:31;15.90;62.70
53422;DHT22;39319;52.944;5.928;2023-03-01T14:31:00;15.90;61.90
53422;DHT22;39319;52.944;5.928;2023-03-01T14:33:27;15.90;63.00
53422;DHT22;39319;52.944;5.928;2023-03-01T14:36:00;15.90;63.00
53422;DHT22;39319;52.944;5.928;2023-03-01T14:38:33;15.80;62.50
53422;DHT22;39319;52.944;5.928;2023-03-01T14:41:03;15.70;63.30
53422;DHT22;39319;52.944;5.928;2023-03-01T14:43:31;15.70;64.30
53422;DHT22;39319;52.944;5.928;2023-03-01T14:45:57;15.50;63.90
53422;DHT22;39319;52.944;5.928;2023-03-01T14:48:23;15.50;64.00
53422;DHT22;39319;52.944;5.928;2023-03-01T14:50:50;15.40;63.40
53422;DHT22;39319;52.944;5.928;2023-03-01T14:53:22;15.30;65.40
53422;DHT22;39319;52.944;5.928;2023-03-01T14:55:55;15.20;65.10
53422;DHT22;39319;52.944;5.928;2023-03-01T14:58:24;15.20;64.10
53422;DHT22;39319;52.944;5.928;2023-03-01T15:01:12;15.10;65.20
53422;DHT22;39319;52.944;5.928;2023-03-01T15:03:44;15.10;65.80
53422;DHT22;39319;52.944;5.928;2023-03-01T15:06:12;15.10;64.30
53422;DHT22;39319;52.944;5.928;2023-03-01T15:08:47;14.90;63.90
53422;DHT22;39319;52.944;5.928;2023-03-01T15:13:40;14.80;63.80
53422;DHT22;39319;52.944;5.928;2023-03-01T15:18:34;14.70;64.30
53422;DHT22;39319;52.944;5.928;2023-03-01T15:21:08;14.80;64.30
53422;DHT22;39319;52.944;5.928;2023-03-01T15:23:37;14.80;66.00
53422;DHT22;39319;52.944;5.928;2023-03-01T15:26:04;14.90;64.90
53422;DHT22;39319;52.944;5.928;2023-03-01T15:28:41;15.00;64.10
53422;DHT22;39319;52.944;5.928;2023-03-01T15:31:23;15.00;64.60
53422;DHT22;39319;52.944;5.928;2023-03-01T15:33:49;15.10;65.30
53422;DHT22;39319;52.944;5.928;2023-03-01T15:36:41;15.20;64.60
53422;DHT22;39319;52.944;5.928;2023-03-01T15:39:34;15.30;63.90
53422;DHT22;39319;52.944;5.928;2023-03-01T15:42:52;15.40;65.90
53422;DHT22;39319;52.944;5.928;2023-03-01T15:47:41;15.40;63.70
53422;DHT22;39319;52.944;5.928;2023-03-01T15:50:26;15.40;63.60
53422;DHT22;39319;52.944;5.928;2023-03-01T15:52:53;15.40;64.20
53422;DHT22;39319;52.944;5.928;2023-03-01T15:55:28;15.40;63.50
53422;DHT22;39319;52.944;5.928;2023-03-01T15:58:10;15.20;65.00
53422;DHT22;39319;52.944;5.928;2023-03-01T16:00:36;14.80;65.40
53422;DHT22;39319;52.944;5.928;2023-03-01T16:03:03;14.40;66.50
53422;DHT22;39319;52.944;5.928;2023-03-01T16:05:31;14.00;67.20
53422;DHT22;39319;52.944;5.928;2023-03-01T16:07:57;13.80;67.70
53422;DHT22;39319;52.944;5.928;2023-03-01T16:10:24;13.50;68.50
53422;DHT22;39319;52.944;5.928;2023-03-01T16:12:50;13.30;69.40
53422;DHT22;39319;52.944;5.928;2023-03-01T16:15:26;13.20;68.70
53422;DHT22;39319;52.944;5.928;2023-03-01T16:17:53;13.00;69.70
53422;DHT22;39319;52.944;5.928;2023-03-01T16:20:19;12.90;70.40
53422;DHT22;39319;52.944;5.928;2023-03-01T16:22:45;12.70;71.00
53422;DHT22;39319;52.944;5.928;2023-03-01T16:25:12;12.60;71.20
53422;DHT22;39319;52.944;5.928;2023-03-01T16:27:38;12.40;71.50
53422;DHT22;39319;52.944;5.928;2023-03-01T16:30:07;12.30;72.40
53422;DHT22;39319;52.944;5.928;2023-03-01T16:32:40;12.20;72.50
53422;DHT22;39319;52.944;5.928;2023-03-01T16:35:07;12.10;73.40
53422;DHT22;39319;52.944;5.928;2023-03-01T16:37:35;11.90;74.40
53422;DHT22;39319;52.944;5.928;2023-03-01T16:40:01;11.80;74.60
53422;DHT22;39319;52.944;5.928;2023-03-01T16:42:33;11.60;75.20
53422;DHT22;39319;52.944;5.928;2023-03-01T16:44:59;11.60;75.60
53422;DHT22;39319;52.944;5.928;2023-03-01T16:47:25;11.50;76.00
53422;DHT22;39319;52.944;5.928;2023-03-01T16:49:52;11.30;75.90
53422;DHT22;39319;52.944;5.928;2023-03-01T16:52:18;11.30;76.40
53422;DHT22;39319;52.944;5.928;2023-03-01T16:54:44;11.30;76.60
53422;DHT22;39319;52.944;5.928;2023-03-01T16:57:12;11.20;76.90
53422;DHT22;39319;52.944;5.928;2023-03-01T16:59:38;11.10;77.40
53422;DHT22;39319;52.944;5.928;2023-03-01T17:02:04;10.90;77.60
53422;DHT22;39319;52.944;5.928;2023-03-01T17:04:32;10.90;78.00
53422;DHT22;39319;52.944;5.928;2023-03-01T17:06:57;10.80;78.40
53422;DHT22;39319;52.944;5.928;2023-03-01T17:09:23;10.80;78.80
53422;DHT22;39319;52.944;5.928;2023-03-01T17:11:51;10.60;79.30
53422;DHT22;39319;52.944;5.928;2023-03-01T17:14:17;10.50;79.40
53422;DHT22;39319;52.944;5.928;2023-03-01T17:16:43;10.40;79.80
53422;DHT22;39319;52.944;5.928;2023-03-01T17:19:10;10.50;80.10
53422;DHT22;39319;52.944;5.928;2023-03-01T17:21:36;10.30;80.50
53422;DHT22;39319;52.944;5.928;2023-03-01T17:24:02;10.30;80.50
53422;DHT22;39319;52.944;5.928;2023-03-01T17:26:28;10.10;80.70
53422;DHT22;39319;52.944;5.928;2023-03-01T17:28:55;10.10;81.10
53422;DHT22;39319;52.944;5.928;2023-03-01T17:31:22;10.10;81.20
53422;DHT22;39319;52.944;5.928;2023-03-01T17:33:48;9.90;81.40
53422;DHT22;39319;52.944;5.928;2023-03-01T17:36:15;9.90;81.80
53422;DHT22;39319;52.944;5.928;2023-03-01T17:38:41;9.80;82.20
53422;DHT22;39319;52.944;5.928;2023-03-01T17:41:06;9.70;82.30
53422;DHT22;39319;52.944;5.928;2023-03-01T17:43:32;9.70;82.60
53422;DHT22;39319;52.944;5.928;2023-03-01T17:45:59;9.30;82.60
53422;DHT22;39319;52.944;5.928;2023-03-01T17:48:25;9.60;82.80
53422;DHT22;39319;52.944;5.928;2023-03-01T17:50:51;9.40;82.90
53422;DHT22;39319;52.944;5.928;2023-03-01T17:53:17;9.40;83.40
53422;DHT22;39319;52.944;5.928;2023-03-01T17:55:44;9.40;83.60
53422;DHT22;39319;52.944;5.928;2023-03-01T17:58:12;9.30;83.50
53422;DHT22;39319;52.944;5.928;2023-03-01T18:00:38;9.30;83.70
53422;DHT22;39319;52.944;5.928;2023-03-01T18:03:04;9.40;83.50
53422;DHT22;39319;52.944;5.928;2023-03-01T18:05:32;9.20;83.40
53422;DHT22;39319;52.944;5.928;2023-03-01T18:07:58;9.10;84.10
53422;DHT22;39319;52.944;5.928;2023-03-01T18:10:24;9.10;83.80
53422;DHT22;39319;52.944;5.928;2023-03-01T18:12:50;9.00;84.20